Time;durP1;ratioP1;P1;durP2;ratioP2;P2;SDS_P1;SDS_P2;PMS_P1;PMS_P2;Temp;Humidity;BMP_temperature;BMP_pressure;BME280_temperature;BME280_humidity;BME280_pressure;Samples;Min_cycle;Max_cycle;Signal;HPM_P1;HPM_P2
2023/01/25 00:02:27;;;;;;;33.35;14.57;;;;;;;;;;5058786;28;20426;-84
2023/01/25 00:04:56;;;;;;;33.03;14.77;;;;;;;;;;5056309;28;20413;-82
2023/01/25 00:07:29;;;;;;;35.38;15.45;;;;;;;;;;5066685;28;20427;-84
2023/01/25 00:10:02;;;;;;;36.38;14.73;;;;;;;;;;5067182;28;20785;-83
2023/01/25 00:12:29;;;;;;;34.30;15.05;;;;;;;;;;5075708;28;20427;-83
2023/01/25 00:14:57;;;;;;;33.70;14.75;;;;;;;;;;5068224;28;20427;-82
2023/01/25 00:17:26;;;;;;;38.08;16.23;;;;;;;;;;5056065;28;20858;-81
2023/01/25 00:19:53;;;;;;;38.45;16.92;;;;;;;;;;5070878;28;20419;-82
2023/01/25 00:22:28;;;;;;;36.60;15.50;;;;;;;;;;5074691;28;20431;-82
2023/01/25 00:24:55;;;;;;;34.55;16.20;;;;;;;;;;5073715;28;20425;-82
2023/01/25 00:27:28;;;;;;;37.77;15.83;;;;;;;;;;5073111;28;20419;-82
2023/01/25 00:30:01;;;;;;;38.08;15.77;;;;;;;;;;5074027;28;20419;-83
2023/01/25 00:32:33;;;;;;;34.75;15.63;;;;;;;;;;5081155;28;20428;-79
2023/01/25 00:35:00;;;;;;;36.88;15.60;;;;;;;;;;5077901;28;20444;-82
2023/01/25 00:37:37;;;;;;;38.10;16.05;;;;;;;;;;5074952;28;21187;-82
2023/01/25 00:40:11;;;;;;;37.38;15.90;;;;;;;;;;5066451;28;20428;-82
2023/01/25 00:42:44;;;;;;;37.47;15.95;;;;;;;;;;5073180;28;20419;-83
2023/01/25 00:45:12;;;;;;;35.58;16.38;;;;;;;;;;5072574;28;20434;-82
2023/01/25 00:47:45;;;;;;;38.45;16.50;;;;;;;;;;5061112;28;20761;-82
2023/01/25 00:50:18;;;;;;;40.40;16.02;;;;;;;;;;5069789;28;20404;-83
2023/01/25 00:52:52;;;;;;;37.03;15.38;;;;;;;;;;5060472;28;20776;-82
2023/01/25 00:55:25;;;;;;;36.47;16.30;;;;;;;;;;5087060;28;20419;-82
2023/01/25 00:57:58;;;;;;;38.43;16.60;;;;;;;;;;5052002;28;20425;-84
2023/01/25 01:00:31;;;;;;;39.85;17.30;;;;;;;;;;5068784;28;20421;-83
2023/01/25 01:02:59;;;;;;;40.10;17.40;;;;;;;;;;5057004;28;20892;-83
2023/01/25 01:05:28;;;;;;;38.33;16.75;;;;;;;;;;5062986;28;20797;-83
2023/01/25 01:07:57;;;;;;;41.15;18.05;;;;;;;;;;5079982;28;20774;-81
2023/01/25 01:10:25;;;;;;;44.08;19.23;;;;;;;;;;5059663;28;20765;-83
2023/01/25 01:12:53;;;;;;;45.15;19.48;;;;;;;;;;5063378;28;20821;-82
2023/01/25 01:15:21;;;;;;;48.47;20.08;;;;;;;;;;5064571;28;20424;-82
2023/01/25 01:17:48;;;;;;;46.60;19.83;;;;;;;;;;5071275;28;20419;-82
2023/01/25 01:20:16;;;;;;;46.38;20.52;;;;;;;;;;5070722;28;20395;-82
2023/01/25 01:22:54;;;;;;;53.72;21.23;;;;;;;;;;5071521;28;20408;-82
2023/01/25 01:25:23;;;;;;;53.17;20.90;;;;;;;;;;5071825;28;20418;-82
2023/01/25 01:27:50;;;;;;;48.67;20.30;;;;;;;;;;5069340;28;20408;-82
2023/01/25 01:30:23;;;;;;;51.70;20.92;;;;;;;;;;5065313;28;20803;-83
2023/01/25 01:32:56;;;;;;;49.10;21.00;;;;;;;;;;5072506;28;20435;-82
2023/01/25 01:35:24;;;;;;;51.60;20.90;;;;;;;;;;5073644;28;20414;-82
2023/01/25 01:37:57;;;;;;;49.35;20.10;;;;;;;;;;5068876;28;20405;-82
2023/01/25 01:40:31;;;;;;;50.05;19.90;;;;;;;;;;5081885;28;20430;-82
2023/01/25 01:42:59;;;;;;;51.13;21.00;;;;;;;;;;5067978;28;20448;-86
2023/01/25 01:45:59;;;;;;;47.72;19.45;;;;;;;;;;5079469;28;20416;-82
2023/01/25 01:48:36;;;;;;;44.97;19.20;;;;;;;;;;5025383;28;20423;-82
2023/01/25 01:51:13;;;;;;;44.00;19.00;;;;;;;;;;5060333;28;20412;-82
2023/01/25 01:53:42;;;;;;;42.03;18.70;;;;;;;;;;5069721;28;20423;-82
2023/01/25 01:56:18;;;;;;;42.85;18.20;;;;;;;;;;5082410;28;20784;-83
2023/01/25 01:58:46;;;;;;;41.42;18.00;;;;;;;;;;5067345;28;20916;-82
2023/01/25 02:01:15;;;;;;;41.88;17.52;;;;;;;;;;5056671;28;20424;-82
2023/01/25 02:03:48;;;;;;;39.33;17.57;;;;;;;;;;5073851;28;20506;-82
2023/01/25 02:06:19;;;;;;;41.00;17.50;;;;;;;;;;5071798;28;20497;-84
2023/01/25 02:08:53;;;;;;;41.35;17.23;;;;;;;;;;5068280;28;20427;-84
2023/01/25 02:11:27;;;;;;;40.45;17.55;;;;;;;;;;5064034;28;20427;-83
2023/01/25 02:13:57;;;;;;;39.37;18.00;;;;;;;;;;5059270;28;20474;-83
2023/01/25 02:16:33;;;;;;;40.05;17.45;;;;;;;;;;5063363;28;20425;-82
2023/01/25 02:19:03;;;;;;;37.00;15.52;;;;;;;;;;5062820;28;20428;-85
2023/01/25 02:21:35;;;;;;;41.22;16.20;;;;;;;;;;5072734;28;20425;-82
2023/01/25 02:24:08;;;;;;;38.63;16.25;;;;;;;;;;5067244;28;20415;-83
2023/01/25 02:26:41;;;;;;;37.90;16.13;;;;;;;;;;5066142;28;20419;-83
2023/01/25 02:29:15;;;;;;;40.35;16.13;;;;;;;;;;5081855;28;20782;-82
2023/01/25 02:31:44;;;;;;;39.60;15.88;;;;;;;;;;5061155;28;20431;-82
2023/01/25 02:34:16;;;;;;;35.88;15.80;;;;;;;;;;5065394;28;20438;-82
2023/01/25 02:36:49;;;;;;;39.60;15.80;;;;;;;;;;5067336;28;20425;-84
2023/01/25 02:39:17;;;;;;;37.28;15.32;;;;;;;;;;5068672;28;20417;-82
2023/01/25 02:41:52;;;;;;;38.00;15.48;;;;;;;;;;5066316;28;20423;-82
2023/01/25 02:44:21;;;;;;;39.03;16.30;;;;;;;;;;5067780;28;20419;-82
2023/01/25 02:46:54;;;;;;;40.30;15.80;;;;;;;;;;5063413;28;20419;-82
2023/01/25 02:49:23;;;;;;;37.97;15.63;;;;;;;;;;5067491;28;20935;-83
2023/01/25 02:51:54;;;;;;;41.30;15.88;;;;;;;;;;5051830;28;20397;-83
2023/01/25 02:54:22;;;;;;;36.17;15.17;;;;;;;;;;5083769;28;20427;-82
2023/01/25 02:56:52;;;;;;;34.97;14.57;;;;;;;;;;5069090;28;20428;-82
2023/01/25 02:59:28;;;;;;;37.20;14.00;;;;;;;;;;5066183;28;20981;-82
2023/01/25 03:02:01;;;;;;;37.35;14.20;;;;;;;;;;5052705;28;20440;-84
2023/01/25 03:04:30;;;;;;;33.78;13.68;;;;;;;;;;5069935;28;20438;-83
2023/01/25 03:07:03;;;;;;;33.22;13.85;;;;;;;;;;5083019;28;20431;-82
2023/01/25 03:09:36;;;;;;;37.75;13.55;;;;;;;;;;5068034;28;20415;-83
2023/01/25 03:12:06;;;;;;;34.13;13.90;;;;;;;;;;5066574;28;20417;-84
2023/01/25 03:14:40;;;;;;;31.52;13.13;;;;;;;;;;5065745;28;20421;-82
2023/01/25 03:17:13;;;;;;;32.27;13.07;;;;;;;;;;5082740;28;20928;-82
2023/01/25 03:19:41;;;;;;;34.75;13.50;;;;;;;;;;5065085;28;20414;-83
2023/01/25 03:22:14;;;;;;;36.03;13.88;;;;;;;;;;5079259;28;20433;-83
2023/01/25 03:24:42;;;;;;;33.50;13.48;;;;;;;;;;5075872;28;20437;-82
2023/01/25 03:27:17;;;;;;;30.75;13.35;;;;;;;;;;5077032;28;20415;-83
2023/01/25 03:30:00;;;;;;;27.57;12.77;;;;;;;;;;5056195;28;20505;-82
2023/01/25 03:32:33;;;;;;;29.80;12.80;;;;;;;;;;5075159;28;20419;-84
2023/01/25 03:35:06;;;;;;;30.98;12.75;;;;;;;;;;5064167;28;20426;-83
2023/01/25 03:37:34;;;;;;;29.77;13.05;;;;;;;;;;5054300;28;20425;-82
2023/01/25 03:40:04;;;;;;;29.17;12.23;;;;;;;;;;5083781;28;20425;-82
2023/01/25 03:42:39;;;;;;;27.52;12.50;;;;;;;;;;5072068;28;20415;-82
2023/01/25 03:45:08;;;;;;;29.30;12.82;;;;;;;;;;5065073;28;20744;-82
2023/01/25 03:47:37;;;;;;;31.63;13.10;;;;;;;;;;5086826;28;20414;-83
2023/01/25 03:50:05;;;;;;;31.73;13.43;;;;;;;;;;5078445;28;20435;-84
2023/01/25 03:52:41;;;;;;;32.58;14.18;;;;;;;;;;5071340;28;20437;-82
2023/01/25 03:55:17;;;;;;;31.95;13.38;;;;;;;;;;5069925;28;20427;-82
2023/01/25 03:57:48;;;;;;;29.83;13.82;;;;;;;;;;5059870;28;20782;-83
2023/01/25 04:00:18;;;;;;;29.70;13.23;;;;;;;;;;5069707;28;20426;-84
2023/01/25 04:02:49;;;;;;;27.95;12.05;;;;;;;;;;5072199;28;20427;-82
2023/01/25 04:05:22;;;;;;;26.67;11.75;;;;;;;;;;5071081;28;20420;-82
2023/01/25 04:07:55;;;;;;;30.35;13.15;;;;;;;;;;5068802;28;20396;-82
2023/01/25 04:10:34;;;;;;;27.95;12.82;;;;;;;;;;5083136;28;20419;-83
2023/01/25 04:13:10;;;;;;;25.05;11.90;;;;;;;;;;5063966;28;20469;-83
2023/01/25 04:15:38;;;;;;;26.08;12.07;;;;;;;;;;5065387;28;20974;-82
2023/01/25 04:18:21;;;;;;;25.55;11.93;;;;;;;;;;5085607;28;20909;-82
2023/01/25 04:20:54;;;;;;;27.13;12.02;;;;;;;;;;5074637;28;20429;-83
2023/01/25 04:23:27;;;;;;;25.95;11.30;;;;;;;;;;5087200;28;20936;-82
2023/01/25 04:25:55;;;;;;;26.02;11.63;;;;;;;;;;5075897;28;20423;-82
2023/01/25 04:28:30;;;;;;;24.23;11.23;;;;;;;;;;5072318;28;20428;-83
2023/01/25 04:30:59;;;;;;;23.33;10.95;;;;;;;;;;5073653;28;20422;-83
2023/01/25 04:33:33;;;;;;;24.40;11.27;;;;;;;;;;5082514;28;20405;-82
2023/01/25 04:36:02;;;;;;;23.45;11.13;;;;;;;;;;5075673;28;20917;-83
2023/01/25 04:38:30;;;;;;;24.63;11.20;;;;;;;;;;5060312;28;20942;-82
2023/01/25 04:40:58;;;;;;;23.80;11.57;;;;;;;;;;5077213;28;20737;-82
2023/01/25 04:43:26;;;;;;;21.70;11.13;;;;;;;;;;5072597;28;20451;-82
2023/01/25 04:46:02;;;;;;;22.33;11.15;;;;;;;;;;5081924;28;20419;-82
2023/01/25 04:48:35;;;;;;;22.15;10.82;;;;;;;;;;5070384;28;20919;-82
2023/01/25 04:51:08;;;;;;;21.48;10.85;;;;;;;;;;5067844;28;20891;-81
2023/01/25 04:53:36;;;;;;;23.30;11.30;;;;;;;;;;5070893;28;20424;-82
2023/01/25 04:56:06;;;;;;;24.80;12.10;;;;;;;;;;5071004;28;20415;-83
2023/01/25 04:58:43;;;;;;;23.95;11.80;;;;;;;;;;5085434;28;20418;-83
2023/01/25 05:01:13;;;;;;;22.02;10.75;;;;;;;;;;5081518;28;20417;-83
2023/01/25 05:03:46;;;;;;;24.10;12.20;;;;;;;;;;5069045;28;20421;-83
2023/01/25 05:06:25;;;;;;;23.15;11.63;;;;;;;;;;5071902;28;20420;-84
2023/01/25 05:08:58;;;;;;;21.95;10.68;;;;;;;;;;5062193;28;21089;-82
2023/01/25 05:11:27;;;;;;;24.42;11.60;;;;;;;;;;5053571;28;20441;-81
2023/01/25 05:14:12;;;;;;;22.85;11.38;;;;;;;;;;5071592;28;20423;-84
2023/01/25 05:16:47;;;;;;;27.13;12.52;;;;;;;;;;5064212;28;20924;-82
2023/01/25 05:19:20;;;;;;;23.92;12.23;;;;;;;;;;5086181;28;20416;-83
2023/01/25 05:21:58;;;;;;;22.70;11.45;;;;;;;;;;5068574;28;20793;-81
2023/01/25 05:24:34;;;;;;;24.27;11.20;;;;;;;;;;5065514;28;20420;-83
2023/01/25 05:27:06;;;;;;;24.80;12.10;;;;;;;;;;5062870;28;20495;-84
2023/01/25 05:30:07;;;;;;;26.63;12.32;;;;;;;;;;5069176;28;20429;-85
2023/01/25 05:32:53;;;;;;;22.75;11.40;;;;;;;;;;5081884;28;20440;-83
2023/01/25 05:35:23;;;;;;;24.30;12.27;;;;;;;;;;5067916;28;20424;-83
2023/01/25 05:37:57;;;;;;;23.75;11.82;;;;;;;;;;5069362;28;20435;-82
2023/01/25 05:40:27;;;;;;;22.98;11.48;;;;;;;;;;5071401;28;20441;-83
2023/01/25 05:43:01;;;;;;;23.17;11.85;;;;;;;;;;5086453;28;20411;-83
2023/01/25 05:45:30;;;;;;;24.58;12.25;;;;;;;;;;5073597;28;20430;-83
2023/01/25 05:48:06;;;;;;;25.27;12.40;;;;;;;;;;5059467;28;21243;-82
2023/01/25 05:50:38;;;;;;;24.02;12.65;;;;;;;;;;5058594;28;20426;-81
2023/01/25 05:53:10;;;;;;;24.52;12.48;;;;;;;;;;5063117;28;20420;-82
2023/01/25 05:55:39;;;;;;;26.60;12.93;;;;;;;;;;5071510;28;20434;-82
2023/01/25 05:58:15;;;;;;;24.02;12.65;;;;;;;;;;5072079;28;20417;-82
2023/01/25 06:00:43;;;;;;;24.07;12.97;;;;;;;;;;5066204;28;20434;-82
2023/01/25 06:03:28;;;;;;;27.10;13.50;;;;;;;;;;5064446;28;20435;-82
2023/01/25 06:06:02;;;;;;;25.90;12.70;;;;;;;;;;5079528;28;20928;-82
2023/01/25 06:08:35;;;;;;;30.02;13.80;;;;;;;;;;5079612;28;21136;-83
2023/01/25 06:11:08;;;;;;;26.25;13.50;;;;;;;;;;5066492;28;20962;-84
2023/01/25 06:13:40;;;;;;;31.73;16.27;;;;;;;;;;5064053;28;20428;-82
2023/01/25 06:16:08;;;;;;;29.02;14.70;;;;;;;;;;5064249;28;20427;-83
2023/01/25 06:18:42;;;;;;;25.63;13.47;;;;;;;;;;5076259;28;20420;-83
2023/01/25 06:21:32;;;;;;;25.10;12.25;;;;;;;;;;5068786;28;20423;-83
2023/01/25 06:24:00;;;;;;;25.67;12.60;;;;;;;;;;5082291;28;20427;-83
2023/01/25 06:26:32;;;;;;;27.80;13.15;;;;;;;;;;5061584;28;20448;-82
2023/01/25 06:29:05;;;;;;;27.65;13.68;;;;;;;;;;5078144;28;20415;-84
2023/01/25 06:31:38;;;;;;;28.15;13.57;;;;;;;;;;5066626;28;20429;-82
2023/01/25 06:34:08;;;;;;;25.90;13.02;;;;;;;;;;5068208;28;20429;-82
2023/01/25 06:36:41;;;;;;;25.08;12.65;;;;;;;;;;5067323;28;21815;-82
2023/01/25 06:39:14;;;;;;;24.77;13.48;;;;;;;;;;5062080;28;20421;-82
2023/01/25 06:41:41;;;;;;;24.52;12.82;;;;;;;;;;5062420;28;20416;-82
2023/01/25 06:44:14;;;;;;;25.53;13.47;;;;;;;;;;5066879;28;21021;-85
2023/01/25 06:46:42;;;;;;;26.52;13.38;;;;;;;;;;5064846;28;20915;-82
2023/01/25 06:49:11;;;;;;;25.35;13.00;;;;;;;;;;5067975;28;20404;-83
2023/01/25 06:51:44;;;;;;;24.40;13.03;;;;;;;;;;5079462;28;20508;-82
2023/01/25 06:54:17;;;;;;;26.75;13.35;;;;;;;;;;5067557;28;20427;-82
2023/01/25 06:56:45;;;;;;;28.08;13.32;;;;;;;;;;5057965;28;20431;-83
2023/01/25 06:59:14;;;;;;;25.50;12.30;;;;;;;;;;5083500;28;20427;-82
2023/01/25 07:01:42;;;;;;;25.20;12.57;;;;;;;;;;5072769;28;20420;-82
2023/01/25 07:04:16;;;;;;;22.85;11.80;;;;;;;;;;5062495;28;20431;-83
2023/01/25 07:06:44;;;;;;;24.38;12.50;;;;;;;;;;5063686;28;20428;-83
2023/01/25 07:09:13;;;;;;;23.63;12.35;;;;;;;;;;5068748;28;20782;-82
2023/01/25 07:11:46;;;;;;;23.98;12.40;;;;;;;;;;5064315;28;20434;-84
2023/01/25 07:14:14;;;;;;;24.27;12.18;;;;;;;;;;5070362;28;20423;-82
2023/01/25 07:16:42;;;;;;;23.63;12.05;;;;;;;;;;5077321;28;20434;-82
2023/01/25 07:19:12;;;;;;;21.98;12.07;;;;;;;;;;5055567;28;20427;-82
2023/01/25 07:21:46;;;;;;;22.58;11.93;;;;;;;;;;5063283;28;20672;-82
2023/01/25 07:24:14;;;;;;;24.80;12.52;;;;;;;;;;5066125;28;20425;-83
2023/01/25 07:26:42;;;;;;;22.75;11.85;;;;;;;;;;5068130;28;20442;-82
2023/01/25 07:29:16;;;;;;;21.63;11.25;;;;;;;;;;5070203;28;20779;-83
2023/01/25 07:31:48;;;;;;;24.88;12.35;;;;;;;;;;5069937;28;20419;-84
2023/01/25 07:34:22;;;;;;;24.20;12.30;;;;;;;;;;5078182;28;20429;-83
2023/01/25 07:36:56;;;;;;;22.48;12.55;;;;;;;;;;5074213;28;20425;-84
2023/01/25 07:39:23;;;;;;;22.98;11.60;;;;;;;;;;5062588;28;20424;-85
2023/01/25 07:41:56;;;;;;;22.98;11.73;;;;;;;;;;5060184;28;20429;-83
2023/01/25 07:44:30;;;;;;;24.08;12.55;;;;;;;;;;5059314;28;20427;-85
2023/01/25 07:47:09;;;;;;;20.67;11.40;;;;;;;;;;5056862;28;20435;-85
2023/01/25 07:49:36;;;;;;;25.05;12.15;;;;;;;;;;5060366;28;20419;-83
2023/01/25 07:52:10;;;;;;;22.67;12.13;;;;;;;;;;5080438;28;20427;-83
2023/01/25 07:54:45;;;;;;;22.42;11.77;;;;;;;;;;5061532;28;20426;-83
2023/01/25 07:57:19;;;;;;;25.73;13.55;;;;;;;;;;5069200;28;21179;-83
2023/01/25 07:59:51;;;;;;;25.30;12.05;;;;;;;;;;5066309;28;20431;-82
2023/01/25 08:02:24;;;;;;;23.35;12.52;;;;;;;;;;5085030;28;20924;-83
2023/01/25 08:04:52;;;;;;;26.15;12.70;;;;;;;;;;5068716;28;20427;-84
2023/01/25 08:07:28;;;;;;;25.93;12.83;;;;;;;;;;5071835;28;20520;-85
2023/01/25 08:09:56;;;;;;;25.13;12.32;;;;;;;;;;5055911;28;21000;-85
2023/01/25 08:12:29;;;;;;;26.47;13.37;;;;;;;;;;5059405;28;20420;-87
2023/01/25 08:14:57;;;;;;;25.70;13.63;;;;;;;;;;5058199;28;20431;-86
2023/01/25 08:17:32;;;;;;;25.60;12.52;;;;;;;;;;5050443;28;20439;-88
2023/01/25 08:20:06;;;;;;;25.35;12.88;;;;;;;;;;5054832;28;20427;-85
2023/01/25 08:22:35;;;;;;;25.70;13.15;;;;;;;;;;5074821;28;20434;-86
2023/01/25 08:25:08;;;;;;;27.13;13.82;;;;;;;;;;5052381;28;20435;-88
2023/01/25 08:27:36;;;;;;;26.33;13.10;;;;;;;;;;5062243;28;20431;-87
2023/01/25 08:30:11;;;;;;;26.60;13.30;;;;;;;;;;5049599;28;20528;-87
2023/01/25 08:32:44;;;;;;;26.30;13.53;;;;;;;;;;5051243;28;20430;-86
2023/01/25 08:35:12;;;;;;;26.90;13.03;;;;;;;;;;5051693;28;20424;-87
2023/01/25 08:37:41;;;;;;;28.85;13.38;;;;;;;;;;5053309;28;20442;-87
2023/01/25 08:40:09;;;;;;;24.35;13.10;;;;;;;;;;5057561;28;20431;-87
2023/01/25 08:42:42;;;;;;;26.13;12.82;;;;;;;;;;5054614;28;20458;-88
2023/01/25 08:45:10;;;;;;;24.33;12.50;;;;;;;;;;5052185;28;20938;-86
2023/01/25 08:47:38;;;;;;;25.02;13.35;;;;;;;;;;5055713;28;20435;-86
2023/01/25 08:50:07;;;;;;;25.83;12.85;;;;;;;;;;5050225;28;20826;-86
2023/01/25 08:52:34;;;;;;;25.98;13.75;;;;;;;;;;5051598;28;20428;-85
2023/01/25 08:55:04;;;;;;;25.65;13.60;;;;;;;;;;5061650;28;20791;-87
2023/01/25 08:57:32;;;;;;;25.60;12.98;;;;;;;;;;5049144;28;20439;-87
2023/01/25 09:00:00;;;;;;;24.88;13.43;;;;;;;;;;5066731;28;20439;-86
2023/01/25 09:02:27;;;;;;;26.15;12.88;;;;;;;;;;5055160;28;20430;-86
2023/01/25 09:04:55;;;;;;;24.73;12.73;;;;;;;;;;5048510;28;20428;-86
2023/01/25 09:07:31;;;;;;;26.42;12.80;;;;;;;;;;5066273;28;20435;-86
2023/01/25 09:09:59;;;;;;;23.55;12.13;;;;;;;;;;5054495;28;20419;-86
2023/01/25 09:12:33;;;;;;;25.57;12.50;;;;;;;;;;5056435;28;20428;-86
2023/01/25 09:15:06;;;;;;;27.02;12.82;;;;;;;;;;5054576;28;20446;-88
2023/01/25 09:17:39;;;;;;;25.65;12.48;;;;;;;;;;5051812;28;20799;-86
2023/01/25 09:20:12;;;;;;;28.13;13.55;;;;;;;;;;5048957;28;20451;-86
2023/01/25 09:22:45;;;;;;;24.83;12.60;;;;;;;;;;5068699;28;20435;-85
2023/01/25 09:25:13;;;;;;;26.38;13.43;;;;;;;;;;5049602;28;20431;-86
2023/01/25 09:27:50;;;;;;;26.77;13.67;;;;;;;;;;5058588;28;20491;-87
2023/01/25 09:30:23;;;;;;;28.50;13.63;;;;;;;;;;5054625;28;20431;-86
2023/01/25 09:32:56;;;;;;;27.43;13.60;;;;;;;;;;5063651;28;20927;-85
2023/01/25 09:35:29;;;;;;;25.85;13.48;;;;;;;;;;5054555;28;20954;-86
2023/01/25 09:37:57;;;;;;;27.52;13.90;;;;;;;;;;5050048;28;21454;-85
2023/01/25 09:40:28;;;;;;;27.65;14.00;;;;;;;;;;5058432;28;20450;-88
2023/01/25 09:43:00;;;;;;;27.02;13.82;;;;;;;;;;5065614;28;20443;-86
2023/01/25 09:45:34;;;;;;;27.58;13.32;;;;;;;;;;5061400;28;20920;-85
2023/01/25 09:48:13;;;;;;;27.27;14.07;;;;;;;;;;5057505;28;20434;-86
2023/01/25 09:51:10;;;;;;;28.63;13.85;;;;;;;;;;5052744;28;20439;-86
2023/01/25 09:53:38;;;;;;;26.10;13.13;;;;;;;;;;5049167;28;20423;-85
2023/01/25 09:56:13;;;;;;;24.67;13.35;;;;;;;;;;5055461;28;20431;-85
2023/01/25 09:58:44;;;;;;;25.98;13.80;;;;;;;;;;5048595;28;20427;-84
2023/01/25 10:01:17;;;;;;;27.20;13.95;;;;;;;;;;5061550;28;20440;-85
2023/01/25 10:03:49;;;;;;;26.63;13.93;;;;;;;;;;5059993;28;20435;-86
2023/01/25 10:06:19;;;;;;;27.30;13.82;;;;;;;;;;5052136;28;20427;-85
2023/01/25 10:08:56;;;;;;;29.20;14.05;;;;;;;;;;5050581;28;21128;-85
2023/01/25 10:11:29;;;;;;;28.20;14.38;;;;;;;;;;5029048;28;20434;-85
2023/01/25 10:13:59;;;;;;;29.58;14.18;;;;;;;;;;5052867;28;21173;-85
2023/01/25 10:16:37;;;;;;;28.13;13.90;;;;;;;;;;5052974;28;21349;-83
2023/01/25 10:19:14;;;;;;;26.75;13.90;;;;;;;;;;5054880;28;20436;-85
2023/01/25 10:21:49;;;;;;;27.40;13.70;;;;;;;;;;5058627;28;21116;-85
2023/01/25 10:24:31;;;;;;;26.77;13.80;;;;;;;;;;5044102;28;20472;-87
2023/01/25 10:27:02;;;;;;;27.05;13.48;;;;;;;;;;5067814;28;20428;-85
2023/01/25 10:29:34;;;;;;;27.27;13.27;;;;;;;;;;5048969;28;20896;-85
2023/01/25 10:32:11;;;;;;;26.85;13.27;;;;;;;;;;5048991;28;20800;-85
2023/01/25 10:34:43;;;;;;;24.80;13.45;;;;;;;;;;5050009;28;21476;-85
2023/01/25 10:37:19;;;;;;;26.60;13.88;;;;;;;;;;5051342;28;20438;-84
2023/01/25 10:39:53;;;;;;;26.73;13.35;;;;;;;;;;5053545;28;20434;-84
2023/01/25 10:42:22;;;;;;;23.88;12.70;;;;;;;;;;5067761;28;20432;-90
2023/01/25 10:44:51;;;;;;;25.20;12.90;;;;;;;;;;5050451;28;20431;-89
2023/01/25 10:47:26;;;;;;;27.98;12.57;;;;;;;;;;5046946;28;20442;-89
2023/01/25 10:49:58;;;;;;;25.92;13.02;;;;;;;;;;5052190;28;20463;-92
2023/01/25 10:52:34;;;;;;;25.80;12.80;;;;;;;;;;5060548;28;20499;-89
2023/01/25 10:55:07;;;;;;;26.63;13.07;;;;;;;;;;5048243;28;20423;-90
2023/01/25 10:57:43;;;;;;;23.27;12.38;;;;;;;;;;5034405;28;20899;-91
2023/01/25 11:00:24;;;;;;;23.75;12.32;;;;;;;;;;5043032;28;20432;-89
2023/01/25 11:02:52;;;;;;;24.57;12.83;;;;;;;;;;5063934;28;20776;-89
2023/01/25 11:05:28;;;;;;;23.60;12.65;;;;;;;;;;5044194;28;20438;-89
2023/01/25 11:07:56;;;;;;;25.60;13.02;;;;;;;;;;5059904;28;21333;-93
2023/01/25 11:10:28;;;;;;;25.77;12.32;;;;;;;;;;5027051;28;20427;-89
2023/01/25 11:13:22;;;;;;;25.63;13.40;;;;;;;;;;5059680;28;20442;-89
2023/01/25 11:15:52;;;;;;;24.38;12.77;;;;;;;;;;5050528;28;20434;-93
2023/01/25 11:18:27;;;;;;;25.00;13.02;;;;;;;;;;5057515;28;20428;-90
2023/01/25 11:21:06;;;;;;;25.77;12.27;;;;;;;;;;5053091;28;20851;-89
2023/01/25 11:23:33;;;;;;;25.50;12.93;;;;;;;;;;5046565;28;20427;-88
2023/01/25 11:26:12;;;;;;;25.98;12.40;;;;;;;;;;5044222;28;20808;-89
2023/01/25 11:28:47;;;;;;;27.73;13.52;;;;;;;;;;5047004;28;20435;-92
2023/01/25 11:31:18;;;;;;;24.58;12.25;;;;;;;;;;5070035;28;20435;-87
2023/01/25 11:33:51;;;;;;;24.25;12.48;;;;;;;;;;5047046;28;20431;-91
2023/01/25 11:36:22;;;;;;;25.95;13.88;;;;;;;;;;5060901;28;20419;-91
2023/01/25 11:39:00;;;;;;;25.75;12.98;;;;;;;;;;5049751;28;20431;-90
2023/01/25 11:41:33;;;;;;;28.45;13.25;;;;;;;;;;5056903;28;20443;-89
2023/01/25 11:44:08;;;;;;;24.85;12.70;;;;;;;;;;5059192;28;20419;-95
2023/01/25 11:46:50;;;;;;;25.25;12.60;;;;;;;;;;5065397;28;21710;-92
2023/01/25 11:49:30;;;;;;;26.40;13.07;;;;;;;;;;5055768;28;21060;-89
2023/01/25 11:52:08;;;;;;;24.88;12.95;;;;;;;;;;5070753;28;20424;-86
2023/01/25 11:54:40;;;;;;;25.67;13.05;;;;;;;;;;5054116;28;20424;-88
2023/01/25 11:57:15;;;;;;;26.15;13.70;;;;;;;;;;5056315;28;20444;-88
2023/01/25 11:59:52;;;;;;;27.35;13.45;;;;;;;;;;5051547;28;21113;-88
2023/01/25 12:02:33;;;;;;;25.77;13.13;;;;;;;;;;5054764;28;20431;-93
2023/01/25 12:05:19;;;;;;;28.13;13.35;;;;;;;;;;5058369;28;20415;-92
2023/01/25 12:07:51;;;;;;;27.15;13.25;;;;;;;;;;5054253;28;20431;-89
2023/01/25 12:10:25;;;;;;;27.05;13.07;;;;;;;;;;5037278;28;21174;-89
2023/01/25 12:12:56;;;;;;;27.98;13.90;;;;;;;;;;5071667;28;20432;-86
2023/01/25 12:15:34;;;;;;;28.27;14.65;;;;;;;;;;5050919;28;20436;-88
2023/01/25 12:18:24;;;;;;;29.88;14.40;;;;;;;;;;5053510;28;20439;-89
2023/01/25 12:20:59;;;;;;;27.40;14.02;;;;;;;;;;5054950;28;21278;-93
2023/01/25 12:23:32;;;;;;;27.10;14.32;;;;;;;;;;5063715;28;20431;-89
2023/01/25 12:26:12;;;;;;;31.57;15.77;;;;;;;;;;5060393;28;20439;-90
2023/01/25 12:28:47;;;;;;;33.67;16.05;;;;;;;;;;5053915;28;20434;-88
2023/01/25 12:31:23;;;;;;;33.75;17.35;;;;;;;;;;5062249;28;20427;-91
2023/01/25 12:33:56;;;;;;;36.47;17.25;;;;;;;;;;5066695;28;20431;-87
2023/01/25 12:36:26;;;;;;;32.72;16.17;;;;;;;;;;5060276;28;20434;-89
2023/01/25 12:38:58;;;;;;;31.80;16.85;;;;;;;;;;5055521;28;20423;-91
2023/01/25 12:41:30;;;;;;;36.13;16.70;;;;;;;;;;5060767;28;20427;-90
2023/01/25 12:44:06;;;;;;;34.13;17.33;;;;;;;;;;5051618;28;20428;-92
2023/01/25 12:46:42;;;;;;;36.10;18.20;;;;;;;;;;5048791;28;21092;-89
2023/01/25 12:49:19;;;;;;;36.97;17.90;;;;;;;;;;5056414;28;20435;-92
2023/01/25 12:51:53;;;;;;;35.10;17.85;;;;;;;;;;5054456;28;20420;-94
2023/01/25 12:54:25;;;;;;;35.95;18.33;;;;;;;;;;5047812;28;20451;-88
2023/01/25 12:56:57;;;;;;;34.20;17.17;;;;;;;;;;5047603;28;20427;-86
2023/01/25 12:59:29;;;;;;;36.92;17.55;;;;;;;;;;5044559;28;20439;-87
2023/01/25 13:02:09;;;;;;;35.10;17.50;;;;;;;;;;5045765;28;20435;-84
2023/01/25 13:04:45;;;;;;;35.38;17.83;;;;;;;;;;5045537;28;20434;-85
2023/01/25 13:07:17;;;;;;;36.17;18.20;;;;;;;;;;5060702;28;20436;-85
2023/01/25 13:09:53;;;;;;;37.88;19.20;;;;;;;;;;5041724;28;20424;-86
2023/01/25 13:12:26;;;;;;;37.65;18.80;;;;;;;;;;5071660;28;20916;-85
2023/01/25 13:14:58;;;;;;;39.83;19.07;;;;;;;;;;5068175;28;20524;-88
2023/01/25 13:17:36;;;;;;;40.13;18.60;;;;;;;;;;5046758;28;21220;-87
2023/01/25 13:20:32;;;;;;;37.72;18.55;;;;;;;;;;5055626;28;20431;-86
2023/01/25 13:23:26;;;;;;;36.58;17.92;;;;;;;;;;5051601;28;20432;-86
2023/01/25 13:26:17;;;;;;;37.30;18.63;;;;;;;;;;5046249;28;20493;-85
2023/01/25 13:28:45;;;;;;;38.17;18.52;;;;;;;;;;5045241;28;20927;-86
2023/01/25 13:31:42;;;;;;;37.53;18.45;;;;;;;;;;5052199;28;20431;-85
2023/01/25 13:34:37;;;;;;;36.50;17.97;;;;;;;;;;5043998;28;20435;-86
2023/01/25 13:37:18;;;;;;;38.33;18.75;;;;;;;;;;5052069;28;20439;-86
2023/01/25 13:39:51;;;;;;;35.88;18.25;;;;;;;;;;5066039;28;20466;-87
2023/01/25 13:42:21;;;;;;;39.20;18.47;;;;;;;;;;5066420;28;20426;-86
2023/01/25 13:44:54;;;;;;;38.40;18.93;;;;;;;;;;5049603;28;20781;-87
2023/01/25 13:47:28;;;;;;;39.63;19.55;;;;;;;;;;5051153;28;20434;-87
2023/01/25 13:50:04;;;;;;;40.40;19.35;;;;;;;;;;5046037;28;20415;-88
2023/01/25 13:52:38;;;;;;;39.30;19.63;;;;;;;;;;5043712;28;20431;-88
2023/01/25 13:55:16;;;;;;;37.40;18.50;;;;;;;;;;5043750;28;20439;-86
2023/01/25 13:57:44;;;;;;;37.45;18.75;;;;;;;;;;5042720;28;20431;-85
2023/01/25 14:00:17;;;;;;;38.25;18.85;;;;;;;;;;5046823;28;20454;-87
2023/01/25 14:02:53;;;;;;;39.55;18.73;;;;;;;;;;5053036;28;20431;-87
2023/01/25 14:05:26;;;;;;;40.58;19.30;;;;;;;;;;5054549;28;20419;-87
2023/01/25 14:07:56;;;;;;;36.60;19.00;;;;;;;;;;5045830;28;20440;-86
2023/01/25 14:10:26;;;;;;;36.28;18.38;;;;;;;;;;5028157;28;20416;-86
2023/01/25 14:12:57;;;;;;;42.00;19.10;;;;;;;;;;5054824;28;20432;-86
2023/01/25 14:15:27;;;;;;;36.88;18.25;;;;;;;;;;5054113;28;20466;-85
2023/01/25 14:18:04;;;;;;;37.05;18.23;;;;;;;;;;5044940;28;20439;-86
2023/01/25 14:20:37;;;;;;;38.78;18.10;;;;;;;;;;5048179;28;21305;-86
2023/01/25 14:23:25;;;;;;;38.45;18.45;;;;;;;;;;5046894;28;20439;-87
2023/01/25 14:25:58;;;;;;;37.13;18.42;;;;;;;;;;4990116;28;1774934;-86
2023/01/25 14:28:28;;;;;;;39.63;17.90;;;;;;;;;;5045583;28;20432;-86
2023/01/25 14:31:00;;;;;;;34.73;16.87;;;;;;;;;;5061774;28;20487;-86
2023/01/25 14:33:29;;;;;;;36.80;17.40;;;;;;;;;;5050052;28;20424;-87
2023/01/25 14:36:02;;;;;;;38.13;18.90;;;;;;;;;;5068078;28;20419;-87
2023/01/25 14:38:37;;;;;;;40.50;19.67;;;;;;;;;;5041167;28;20524;-86
2023/01/25 14:41:12;;;;;;;36.88;18.80;;;;;;;;;;5047621;28;20424;-83
2023/01/25 14:43:44;;;;;;;41.20;19.42;;;;;;;;;;5038987;28;21993;-86
2023/01/25 14:46:32;;;;;;;38.17;18.40;;;;;;;;;;5039313;28;20420;-82
2023/01/25 14:49:06;;;;;;;37.15;18.15;;;;;;;;;;5028765;28;20471;-84
2023/01/25 14:51:34;;;;;;;37.65;18.67;;;;;;;;;;5038429;28;20429;-84